sensor_id;sensor_type;location;lat;lon;timestamp;pressure;altitude;pressure_sealevel;temperature;humidity
61676;BME280;47574;52.090;5.244;2024-03-17T00:01:42;102325.0;;;12.25;49.6
61676;BME280;47574;52.090;5.244;2024-03-17T00:03:18;102328.0;;;12.13;49.83
61676;BME280;47574;52.090;5.244;2024-03-17T00:04:54;102323.0;;;12.11;49.95
61676;BME280;47574;52.090;5.244;2024-03-17T00:08:07;102322.0;;;12.24;49.74
61676;BME280;47574;52.090;5.244;2024-03-17T00:09:44;102321.0;;;12.4;49.44
61676;BME280;47574;52.090;5.244;2024-03-17T00:11:21;102321.0;;;12.48;49.36
61676;BME280;47574;52.090;5.244;2024-03-17T00:12:58;102321.0;;;12.28;49.61
61676;BME280;47574;52.090;5.244;2024-03-17T00:16:13;102314.0;;;12.16;49.95
61676;BME280;47574;52.090;5.244;2024-03-17T00:17:49;102312.0;;;12.22;49.69
61676;BME280;47574;52.090;5.244;2024-03-17T00:19:25;102310.0;;;12.09;49.93
61676;BME280;47574;52.090;5.244;2024-03-17T00:22:38;102308.0;;;12.13;50.05
61676;BME280;47574;52.090;5.244;2024-03-17T00:24:14;102303.0;;;12.14;49.98
61676;BME280;47574;52.090;5.244;2024-03-17T00:25:50;102307.0;;;12.05;49.97
61676;BME280;47574;52.090;5.244;2024-03-17T00:29:02;102308.0;;;12.1;50.3
61676;BME280;47574;52.090;5.244;2024-03-17T00:30:39;102307.0;;;12.19;50.07
61676;BME280;47574;52.090;5.244;2024-03-17T00:32:15;102301.0;;;12.15;50.0
61676;BME280;47574;52.090;5.244;2024-03-17T00:33:51;102300.0;;;12.34;49.89
61676;BME280;47574;52.090;5.244;2024-03-17T00:37:04;102300.0;;;12.25;49.98
61676;BME280;47574;52.090;5.244;2024-03-17T00:38:40;102300.0;;;12.16;50.18
61676;BME280;47574;52.090;5.244;2024-03-17T00:40:17;102296.0;;;12.31;49.63
61676;BME280;47574;52.090;5.244;2024-03-17T00:43:29;102296.0;;;12.38;49.85
61676;BME280;47574;52.090;5.244;2024-03-17T00:45:06;102292.0;;;12.48;49.63
61676;BME280;47574;52.090;5.244;2024-03-17T00:46:43;102292.0;;;12.42;49.88
61676;BME280;47574;52.090;5.244;2024-03-17T00:49:56;102294.0;;;12.31;50.03
61676;BME280;47574;52.090;5.244;2024-03-17T00:51:32;102298.0;;;12.4;50.08
61676;BME280;47574;52.090;5.244;2024-03-17T00:53:08;102297.0;;;12.43;49.9
61676;BME280;47574;52.090;5.244;2024-03-17T00:54:46;102295.0;;;12.39;50.0
61676;BME280;47574;52.090;5.244;2024-03-17T00:58:00;102296.0;;;12.42;49.99
61676;BME280;47574;52.090;5.244;2024-03-17T00:59:36;102296.0;;;12.4;50.07
61676;BME280;47574;52.090;5.244;2024-03-17T01:01:13;102295.0;;;12.44;50.04
61676;BME280;47574;52.090;5.244;2024-03-17T01:04:25;102293.0;;;12.47;49.91
61676;BME280;47574;52.090;5.244;2024-03-17T01:06:03;102287.0;;;12.41;49.96
61676;BME280;47574;52.090;5.244;2024-03-17T01:07:39;102283.0;;;12.48;49.86
61676;BME280;47574;52.090;5.244;2024-03-17T01:10:51;102282.0;;;12.52;49.84
61676;BME280;47574;52.090;5.244;2024-03-17T01:12:27;102282.0;;;12.5;50.1
61676;BME280;47574;52.090;5.244;2024-03-17T01:14:03;102280.0;;;12.43;50.02
61676;BME280;47574;52.090;5.244;2024-03-17T01:15:40;102275.0;;;12.56;49.9
61676;BME280;47574;52.090;5.244;2024-03-17T01:18:51;102274.0;;;12.63;49.85
61676;BME280;47574;52.090;5.244;2024-03-17T01:20:28;102275.0;;;12.59;49.86
61676;BME280;47574;52.090;5.244;2024-03-17T01:22:04;102278.0;;;12.68;49.71
61676;BME280;47574;52.090;5.244;2024-03-17T01:25:18;102275.0;;;12.63;49.92
61676;BME280;47574;52.090;5.244;2024-03-17T01:26:54;102272.0;;;12.65;49.95
61676;BME280;47574;52.090;5.244;2024-03-17T01:28:30;102266.0;;;12.57;50.22
61676;BME280;47574;52.090;5.244;2024-03-17T01:31:44;102265.0;;;12.68;49.85
61676;BME280;47574;52.090;5.244;2024-03-17T01:33:20;102260.0;;;12.68;49.95
61676;BME280;47574;52.090;5.244;2024-03-17T01:34:56;102263.0;;;12.57;50.14
61676;BME280;47574;52.090;5.244;2024-03-17T01:38:09;102255.0;;;12.63;50.28
61676;BME280;47574;52.090;5.244;2024-03-17T01:39:46;102251.0;;;12.62;50.21
61676;BME280;47574;52.090;5.244;2024-03-17T01:41:23;102244.0;;;12.57;50.33
61676;BME280;47574;52.090;5.244;2024-03-17T01:42:59;102237.0;;;12.52;50.4
61676;BME280;47574;52.090;5.244;2024-03-17T01:46:15;102235.0;;;12.6;50.2
61676;BME280;47574;52.090;5.244;2024-03-17T01:47:53;102233.0;;;12.59;50.33
61676;BME280;47574;52.090;5.244;2024-03-17T01:49:29;102236.0;;;12.64;50.13
61676;BME280;47574;52.090;5.244;2024-03-17T01:52:46;102228.0;;;12.71;50.0
61676;BME280;47574;52.090;5.244;2024-03-17T01:54:24;102232.0;;;12.58;50.34
61676;BME280;47574;52.090;5.244;2024-03-17T01:56:02;102234.0;;;12.51;50.47
61676;BME280;47574;52.090;5.244;2024-03-17T01:57:39;102232.0;;;12.64;50.28
61676;BME280;47574;52.090;5.244;2024-03-17T02:00:53;102230.0;;;12.53;50.41
61676;BME280;47574;52.090;5.244;2024-03-17T02:02:29;102228.0;;;12.68;50.24
61676;BME280;47574;52.090;5.244;2024-03-17T02:04:05;102232.0;;;12.55;50.34
61676;BME280;47574;52.090;5.244;2024-03-17T02:07:19;102230.0;;;12.69;50.12
61676;BME280;47574;52.090;5.244;2024-03-17T02:08:55;102227.0;;;12.76;50.13
61676;BME280;47574;52.090;5.244;2024-03-17T02:10:31;102226.0;;;12.67;50.34
61676;BME280;47574;52.090;5.244;2024-03-17T02:13:44;102227.0;;;12.62;50.4
61676;BME280;47574;52.090;5.244;2024-03-17T02:15:21;102224.0;;;12.69;50.23
61676;BME280;47574;52.090;5.244;2024-03-17T02:16:58;102226.0;;;12.74;50.13
61676;BME280;47574;52.090;5.244;2024-03-17T02:18:36;102218.0;;;12.62;50.44
61676;BME280;47574;52.090;5.244;2024-03-17T02:21:48;102210.0;;;12.76;50.12
61676;BME280;47574;52.090;5.244;2024-03-17T02:23:25;102207.0;;;12.68;50.39
61676;BME280;47574;52.090;5.244;2024-03-17T02:25:02;102212.0;;;12.54;50.5
61676;BME280;47574;52.090;5.244;2024-03-17T02:28:15;102207.0;;;12.7;50.42
61676;BME280;47574;52.090;5.244;2024-03-17T02:29:51;102210.0;;;12.65;50.34
61676;BME280;47574;52.090;5.244;2024-03-17T02:31:27;102203.0;;;12.79;50.16
61676;BME280;47574;52.090;5.244;2024-03-17T02:33:04;102202.0;;;12.77;50.21
61676;BME280;47574;52.090;5.244;2024-03-17T02:36:16;102202.0;;;12.89;49.79
61676;BME280;47574;52.090;5.244;2024-03-17T02:37:52;102199.0;;;12.93;49.62
61676;BME280;47574;52.090;5.244;2024-03-17T02:39:28;102202.0;;;12.97;49.52
61676;BME280;47574;52.090;5.244;2024-03-17T02:42:41;102197.0;;;12.72;49.78
61676;BME280;47574;52.090;5.244;2024-03-17T02:44:17;102198.0;;;12.83;50.18
61676;BME280;47574;52.090;5.244;2024-03-17T02:45:53;102197.0;;;12.89;50.01
61676;BME280;47574;52.090;5.244;2024-03-17T02:49:05;102196.0;;;12.85;50.11
61676;BME280;47574;52.090;5.244;2024-03-17T02:50:42;102192.0;;;12.94;50.06
61676;BME280;47574;52.090;5.244;2024-03-17T02:52:18;102190.0;;;12.94;49.86
61676;BME280;47574;52.090;5.244;2024-03-17T02:55:30;102190.0;;;12.96;49.69
61676;BME280;47574;52.090;5.244;2024-03-17T02:57:06;102189.0;;;13.06;49.55
61676;BME280;47574;52.090;5.244;2024-03-17T02:58:43;102188.0;;;13.17;49.33
61676;BME280;47574;52.090;5.244;2024-03-17T03:00:20;102192.0;;;13.12;49.44
61676;BME280;47574;52.090;5.244;2024-03-17T03:03:35;102189.0;;;13.17;49.27
61676;BME280;47574;52.090;5.244;2024-03-17T03:05:12;102187.0;;;12.93;49.92
61676;BME280;47574;52.090;5.244;2024-03-17T03:06:48;102184.0;;;13.07;49.46
61676;BME280;47574;52.090;5.244;2024-03-17T03:10:00;102187.0;;;13.3;49.2
61676;BME280;47574;52.090;5.244;2024-03-17T03:11:37;102191.0;;;13.33;49.15
61676;BME280;47574;52.090;5.244;2024-03-17T03:13:13;102192.0;;;13.3;49.12
61676;BME280;47574;52.090;5.244;2024-03-17T03:16:26;102187.0;;;13.28;49.2
61676;BME280;47574;52.090;5.244;2024-03-17T03:18:03;102190.0;;;13.24;49.34
61676;BME280;47574;52.090;5.244;2024-03-17T03:19:39;102191.0;;;13.27;49.36
61676;BME280;47574;52.090;5.244;2024-03-17T03:21:16;102189.0;;;13.42;49.03
61676;BME280;47574;52.090;5.244;2024-03-17T03:24:28;102192.0;;;13.31;49.34
61676;BME280;47574;52.090;5.244;2024-03-17T03:26:04;102192.0;;;13.53;49.06
61676;BME280;47574;52.090;5.244;2024-03-17T03:27:40;102190.0;;;13.47;48.96
61676;BME280;47574;52.090;5.244;2024-03-17T03:30:52;102188.0;;;13.4;49.15
61676;BME280;47574;52.090;5.244;2024-03-17T03:32:28;102180.0;;;13.61;48.65
61676;BME280;47574;52.090;5.244;2024-03-17T03:34:04;102176.0;;;13.56;48.88
61676;BME280;47574;52.090;5.244;2024-03-17T03:37:18;102173.0;;;13.42;48.8
61676;BME280;47574;52.090;5.244;2024-03-17T03:38:54;102174.0;;;13.3;49.38
61676;BME280;47574;52.090;5.244;2024-03-17T03:40:31;102169.0;;;13.38;49.44
61676;BME280;47574;52.090;5.244;2024-03-17T03:42:07;102172.0;;;13.58;48.92
61676;BME280;47574;52.090;5.244;2024-03-17T03:45:19;102170.0;;;13.66;48.9
61676;BME280;47574;52.090;5.244;2024-03-17T03:46:55;102166.0;;;13.41;49.25
61676;BME280;47574;52.090;5.244;2024-03-17T03:48:31;102158.0;;;13.45;49.18
61676;BME280;47574;52.090;5.244;2024-03-17T03:51:45;102150.0;;;13.56;49.03
61676;BME280;47574;52.090;5.244;2024-03-17T03:53:22;102149.0;;;13.43;49.36
61676;BME280;47574;52.090;5.244;2024-03-17T03:58:12;102136.0;;;13.4;49.56
61676;BME280;47574;52.090;5.244;2024-03-17T03:59:48;102131.0;;;13.53;49.15
61676;BME280;47574;52.090;5.244;2024-03-17T04:01:25;102134.0;;;13.58;49.25
61676;BME280;47574;52.090;5.244;2024-03-17T04:03:01;102130.0;;;13.47;49.34
61676;BME280;47574;52.090;5.244;2024-03-17T04:06:13;102124.0;;;13.6;49.15
61676;BME280;47574;52.090;5.244;2024-03-17T04:07:50;102118.0;;;13.58;49.07
61676;BME280;47574;52.090;5.244;2024-03-17T04:09:26;102112.0;;;13.62;48.89
61676;BME280;47574;52.090;5.244;2024-03-17T04:12:39;102110.0;;;13.78;48.47
61676;BME280;47574;52.090;5.244;2024-03-17T04:14:16;102111.0;;;13.7;48.72
61676;BME280;47574;52.090;5.244;2024-03-17T04:15:52;102114.0;;;13.62;48.81
61676;BME280;47574;52.090;5.244;2024-03-17T04:19:05;102113.0;;;13.52;49.06
61676;BME280;47574;52.090;5.244;2024-03-17T04:20:41;102118.0;;;13.62;48.93
61676;BME280;47574;52.090;5.244;2024-03-17T04:22:18;102118.0;;;13.79;48.58
61676;BME280;47574;52.090;5.244;2024-03-17T04:25:32;102121.0;;;13.79;48.56
61676;BME280;47574;52.090;5.244;2024-03-17T04:27:08;102116.0;;;13.83;48.62
61676;BME280;47574;52.090;5.244;2024-03-17T04:28:44;102116.0;;;13.83;48.56
61676;BME280;47574;52.090;5.244;2024-03-17T04:30:20;102108.0;;;13.74;48.6
61676;BME280;47574;52.090;5.244;2024-03-17T04:33:32;102103.0;;;13.89;48.45
61676;BME280;47574;52.090;5.244;2024-03-17T04:35:09;102102.0;;;13.8;48.51
61676;BME280;47574;52.090;5.244;2024-03-17T04:36:45;102096.0;;;13.78;48.15
61676;BME280;47574;52.090;5.244;2024-03-17T04:39:58;102097.0;;;13.9;47.62
61676;BME280;47574;52.090;5.244;2024-03-17T04:41:34;102092.0;;;13.92;47.73
61676;BME280;47574;52.090;5.244;2024-03-17T04:43:12;102096.0;;;13.81;47.93
61676;BME280;47574;52.090;5.244;2024-03-17T04:46:24;102098.0;;;13.81;48.0
61676;BME280;47574;52.090;5.244;2024-03-17T04:48:00;102098.0;;;13.77;48.46
61676;BME280;47574;52.090;5.244;2024-03-17T04:49:36;102105.0;;;13.76;48.27
61676;BME280;47574;52.090;5.244;2024-03-17T04:51:15;102110.0;;;13.78;48.39
61676;BME280;47574;52.090;5.244;2024-03-17T04:54:28;102115.0;;;13.89;48.14
61676;BME280;47574;52.090;5.244;2024-03-17T04:56:06;102114.0;;;13.99;47.7
61676;BME280;47574;52.090;5.244;2024-03-17T04:57:44;102115.0;;;13.84;47.79
61676;BME280;47574;52.090;5.244;2024-03-17T05:00:57;102117.0;;;13.98;47.58
61676;BME280;47574;52.090;5.244;2024-03-17T05:02:33;102112.0;;;14.08;47.29
61676;BME280;47574;52.090;5.244;2024-03-17T05:04:09;102107.0;;;13.97;47.64
61676;BME280;47574;52.090;5.244;2024-03-17T05:07:22;102105.0;;;14.11;47.27
61676;BME280;47574;52.090;5.244;2024-03-17T05:08:58;102102.0;;;14.12;47.28
61676;BME280;47574;52.090;5.244;2024-03-17T05:10:34;102101.0;;;13.84;47.74
61676;BME280;47574;52.090;5.244;2024-03-17T05:12:10;102102.0;;;13.81;47.92
61676;BME280;47574;52.090;5.244;2024-03-17T05:15:23;102100.0;;;13.84;47.79
61676;BME280;47574;52.090;5.244;2024-03-17T05:17:00;102100.0;;;13.9;47.74
61676;BME280;47574;52.090;5.244;2024-03-17T05:18:36;102102.0;;;13.88;47.8
61676;BME280;47574;52.090;5.244;2024-03-17T05:21:49;102098.0;;;14.02;47.59
61676;BME280;47574;52.090;5.244;2024-03-17T05:23:26;102098.0;;;13.98;47.89
61676;BME280;47574;52.090;5.244;2024-03-17T05:25:02;102100.0;;;13.8;47.99
61676;BME280;47574;52.090;5.244;2024-03-17T05:28:16;102097.0;;;13.73;47.94
61676;BME280;47574;52.090;5.244;2024-03-17T05:29:53;102096.0;;;13.69;48.31
61676;BME280;47574;52.090;5.244;2024-03-17T05:31:29;102091.0;;;13.68;48.16
61676;BME280;47574;52.090;5.244;2024-03-17T05:33:06;102089.0;;;13.79;47.94
61676;BME280;47574;52.090;5.244;2024-03-17T05:36:18;102090.0;;;13.72;48.24
61676;BME280;47574;52.090;5.244;2024-03-17T05:37:54;102087.0;;;13.61;48.37
61676;BME280;47574;52.090;5.244;2024-03-17T05:39:30;102082.0;;;13.72;48.14
61676;BME280;47574;52.090;5.244;2024-03-17T05:42:44;102089.0;;;13.55;48.57
61676;BME280;47574;52.090;5.244;2024-03-17T05:44:20;102089.0;;;13.64;48.31
61676;BME280;47574;52.090;5.244;2024-03-17T05:45:57;102091.0;;;13.79;48.04
61676;BME280;47574;52.090;5.244;2024-03-17T05:49:11;102091.0;;;13.78;47.95
61676;BME280;47574;52.090;5.244;2024-03-17T05:50:48;102091.0;;;13.76;48.12
61676;BME280;47574;52.090;5.244;2024-03-17T05:52:24;102095.0;;;13.93;47.65
61676;BME280;47574;52.090;5.244;2024-03-17T05:54:00;102100.0;;;13.79;47.99
61676;BME280;47574;52.090;5.244;2024-03-17T05:57:13;102101.0;;;13.81;47.79
61676;BME280;47574;52.090;5.244;2024-03-17T05:58:49;102100.0;;;13.72;47.96
61676;BME280;47574;52.090;5.244;2024-03-17T06:00:26;102107.0;;;13.85;47.79
61676;BME280;47574;52.090;5.244;2024-03-17T06:03:40;102105.0;;;13.78;48.06
61676;BME280;47574;52.090;5.244;2024-03-17T06:05:16;102105.0;;;13.75;47.93
61676;BME280;47574;52.090;5.244;2024-03-17T06:06:52;102103.0;;;13.75;47.96
61676;BME280;47574;52.090;5.244;2024-03-17T06:10:06;102100.0;;;13.79;47.87
61676;BME280;47574;52.090;5.244;2024-03-17T06:11:42;102095.0;;;13.71;48.13
61676;BME280;47574;52.090;5.244;2024-03-17T06:13:19;102100.0;;;13.74;48.21
61676;BME280;47574;52.090;5.244;2024-03-17T06:14:55;102102.0;;;13.85;48.12
61676;BME280;47574;52.090;5.244;2024-03-17T06:18:11;102101.0;;;13.87;47.74
61676;BME280;47574;52.090;5.244;2024-03-17T06:19:48;102099.0;;;13.74;48.0
61676;BME280;47574;52.090;5.244;2024-03-17T06:21:24;102097.0;;;14.07;47.42
61676;BME280;47574;52.090;5.244;2024-03-17T06:24:37;102088.0;;;13.74;47.97
61676;BME280;47574;52.090;5.244;2024-03-17T06:26:14;102092.0;;;13.8;47.96
61676;BME280;47574;52.090;5.244;2024-03-17T06:27:51;102092.0;;;13.83;48.07
61676;BME280;47574;52.090;5.244;2024-03-17T06:31:05;102092.0;;;13.9;48.04
61676;BME280;47574;52.090;5.244;2024-03-17T06:32:42;102089.0;;;13.9;48.22
61676;BME280;47574;52.090;5.244;2024-03-17T06:34:19;102084.0;;;13.79;48.49
61676;BME280;47574;52.090;5.244;2024-03-17T06:35:55;102087.0;;;13.84;48.54
61676;BME280;47574;52.090;5.244;2024-03-17T06:39:07;102086.0;;;13.98;48.14
61676;BME280;47574;52.090;5.244;2024-03-17T06:40:48;102087.0;;;14.05;48.06
61676;BME280;47574;52.090;5.244;2024-03-17T06:42:24;102091.0;;;14.03;48.09
61676;BME280;47574;52.090;5.244;2024-03-17T06:45:39;102097.0;;;13.86;48.46
61676;BME280;47574;52.090;5.244;2024-03-17T06:47:16;102096.0;;;14.1;48.18
61676;BME280;47574;52.090;5.244;2024-03-17T06:48:52;102094.0;;;13.94;48.16
61676;BME280;47574;52.090;5.244;2024-03-17T06:50:29;102092.0;;;14.12;48.1
61676;BME280;47574;52.090;5.244;2024-03-17T06:53:42;102088.0;;;13.98;48.15
61676;BME280;47574;52.090;5.244;2024-03-17T06:55:19;102089.0;;;14.09;48.04
61676;BME280;47574;52.090;5.244;2024-03-17T06:56:55;102091.0;;;14.02;48.37
61676;BME280;47574;52.090;5.244;2024-03-17T07:00:08;102084.0;;;14.22;47.96
61676;BME280;47574;52.090;5.244;2024-03-17T07:01:45;102085.0;;;14.0;48.3
61676;BME280;47574;52.090;5.244;2024-03-17T07:03:24;102088.0;;;14.13;48.1
61676;BME280;47574;52.090;5.244;2024-03-17T07:06:36;102089.0;;;14.06;48.1
61676;BME280;47574;52.090;5.244;2024-03-17T07:08:13;102096.0;;;14.11;48.12
61676;BME280;47574;52.090;5.244;2024-03-17T07:09:49;102099.0;;;14.11;48.46
61676;BME280;47574;52.090;5.244;2024-03-17T07:11:25;102098.0;;;14.14;48.18
61676;BME280;47574;52.090;5.244;2024-03-17T07:14:37;102100.0;;;14.16;48.13
61676;BME280;47574;52.090;5.244;2024-03-17T07:16:13;102100.0;;;14.23;48.07
61676;BME280;47574;52.090;5.244;2024-03-17T07:17:50;102098.0;;;14.22;48.25
61676;BME280;47574;52.090;5.244;2024-03-17T07:21:04;102098.0;;;14.31;48.2
61676;BME280;47574;52.090;5.244;2024-03-17T07:22:41;102097.0;;;14.43;47.89
61676;BME280;47574;52.090;5.244;2024-03-17T07:24:17;102096.0;;;14.35;47.93
61676;BME280;47574;52.090;5.244;2024-03-17T07:27:31;102096.0;;;14.29;48.27
61676;BME280;47574;52.090;5.244;2024-03-17T07:29:07;102091.0;;;14.34;48.16
61676;BME280;47574;52.090;5.244;2024-03-17T07:30:46;102086.0;;;14.51;47.91
61676;BME280;47574;52.090;5.244;2024-03-17T07:32:23;102087.0;;;14.36;48.16
61676;BME280;47574;52.090;5.244;2024-03-17T07:35:46;102087.0;;;14.36;48.29
61676;BME280;47574;52.090;5.244;2024-03-17T07:37:22;102088.0;;;14.18;48.72
61676;BME280;47574;52.090;5.244;2024-03-17T07:38:59;102090.0;;;14.36;48.48
61676;BME280;47574;52.090;5.244;2024-03-17T07:42:12;102091.0;;;14.52;48.19
61676;BME280;47574;52.090;5.244;2024-03-17T07:43:48;102091.0;;;14.43;48.34
61676;BME280;47574;52.090;5.244;2024-03-17T07:45:24;102090.0;;;14.49;48.58
61676;BME280;47574;52.090;5.244;2024-03-17T07:47:00;102090.0;;;14.46;48.51
61676;BME280;47574;52.090;5.244;2024-03-17T07:50:15;102087.0;;;14.45;48.52
61676;BME280;47574;52.090;5.244;2024-03-17T07:51:51;102086.0;;;14.63;48.19
61676;BME280;47574;52.090;5.244;2024-03-17T07:53:29;102080.0;;;14.73;48.53
61676;BME280;47574;52.090;5.244;2024-03-17T07:56:43;102076.0;;;14.88;47.75
61676;BME280;47574;52.090;5.244;2024-03-17T07:58:20;102069.0;;;14.73;48.08
61676;BME280;47574;52.090;5.244;2024-03-17T07:59:56;102070.0;;;14.97;47.55
61676;BME280;47574;52.090;5.244;2024-03-17T08:01:32;102080.0;;;14.85;47.87
61676;BME280;47574;52.090;5.244;2024-03-17T08:04:45;102082.0;;;14.99;47.68
61676;BME280;47574;52.090;5.244;2024-03-17T08:06:22;102090.0;;;14.91;48.04
61676;BME280;47574;52.090;5.244;2024-03-17T08:07:58;102090.0;;;14.94;47.83
61676;BME280;47574;52.090;5.244;2024-03-17T08:11:11;102091.0;;;15.04;47.95
61676;BME280;47574;52.090;5.244;2024-03-17T08:12:48;102085.0;;;14.99;47.83
61676;BME280;47574;52.090;5.244;2024-03-17T08:14:24;102083.0;;;14.91;47.98
61676;BME280;47574;52.090;5.244;2024-03-17T08:17:38;102083.0;;;15.09;47.64
61676;BME280;47574;52.090;5.244;2024-03-17T08:19:15;102082.0;;;15.07;47.79
61676;BME280;47574;52.090;5.244;2024-03-17T08:20:51;102081.0;;;14.91;48.05
61676;BME280;47574;52.090;5.244;2024-03-17T08:22:29;102080.0;;;15.15;47.72
61676;BME280;47574;52.090;5.244;2024-03-17T08:25:42;102077.0;;;15.03;48.06
61676;BME280;47574;52.090;5.244;2024-03-17T08:27:27;102075.0;;;15.2;47.6
61676;BME280;47574;52.090;5.244;2024-03-17T08:29:03;102077.0;;;15.07;47.98
61676;BME280;47574;52.090;5.244;2024-03-17T08:32:15;102078.0;;;14.99;48.25
61676;BME280;47574;52.090;5.244;2024-03-17T08:33:51;102076.0;;;15.17;48.01
61676;BME280;47574;52.090;5.244;2024-03-17T08:35:27;102076.0;;;15.12;48.1
61676;BME280;47574;52.090;5.244;2024-03-17T08:38:41;102083.0;;;14.95;48.51
61676;BME280;47574;52.090;5.244;2024-03-17T08:40:18;102085.0;;;15.23;48.04
61676;BME280;47574;52.090;5.244;2024-03-17T08:41:54;102081.0;;;15.32;47.89
61676;BME280;47574;52.090;5.244;2024-03-17T08:43:31;102080.0;;;15.37;47.88
61676;BME280;47574;52.090;5.244;2024-03-17T08:46:47;102084.0;;;15.59;47.54
61676;BME280;47574;52.090;5.244;2024-03-17T08:48:24;102083.0;;;15.65;47.32
61676;BME280;47574;52.090;5.244;2024-03-17T08:50:01;102082.0;;;15.18;47.98
61676;BME280;47574;52.090;5.244;2024-03-17T08:53:14;102080.0;;;15.5;47.64
61676;BME280;47574;52.090;5.244;2024-03-17T08:54:51;102076.0;;;15.57;47.61
61676;BME280;47574;52.090;5.244;2024-03-17T08:56:27;102076.0;;;15.66;47.48
61676;BME280;47574;52.090;5.244;2024-03-17T08:58:03;102072.0;;;15.54;47.88
61676;BME280;47574;52.090;5.244;2024-03-17T09:01:16;102073.0;;;15.73;47.35
61676;BME280;47574;52.090;5.244;2024-03-17T09:02:53;102071.0;;;15.75;47.22
61676;BME280;47574;52.090;5.244;2024-03-17T09:04:30;102071.0;;;15.68;47.34
61676;BME280;47574;52.090;5.244;2024-03-17T09:07:50;102070.0;;;15.99;46.83
61676;BME280;47574;52.090;5.244;2024-03-17T09:09:27;102071.0;;;15.79;47.26
61676;BME280;47574;52.090;5.244;2024-03-17T09:11:11;102070.0;;;15.69;47.39
61676;BME280;47574;52.090;5.244;2024-03-17T09:12:48;102066.0;;;15.83;47.53
61676;BME280;47574;52.090;5.244;2024-03-17T09:16:01;102063.0;;;15.9;47.41
61676;BME280;47574;52.090;5.244;2024-03-17T09:17:38;102061.0;;;16.14;46.76
61676;BME280;47574;52.090;5.244;2024-03-17T09:19:15;102060.0;;;15.92;47.26
61676;BME280;47574;52.090;5.244;2024-03-17T09:22:33;102058.0;;;15.94;47.05
61676;BME280;47574;52.090;5.244;2024-03-17T09:24:09;102059.0;;;15.8;47.6
61676;BME280;47574;52.090;5.244;2024-03-17T09:25:54;102060.0;;;16.07;47.12
61676;BME280;47574;52.090;5.244;2024-03-17T09:27:31;102060.0;;;16.04;47.35
61676;BME280;47574;52.090;5.244;2024-03-17T09:30:46;102063.0;;;16.11;47.14
61676;BME280;47574;52.090;5.244;2024-03-17T09:32:24;102063.0;;;15.97;47.39
61676;BME280;47574;52.090;5.244;2024-03-17T09:34:00;102065.0;;;16.02;47.47
61676;BME280;47574;52.090;5.244;2024-03-17T09:37:13;102059.0;;;16.15;47.1
61676;BME280;47574;52.090;5.244;2024-03-17T09:38:49;102056.0;;;16.23;47.08
61676;BME280;47574;52.090;5.244;2024-03-17T09:40:26;102052.0;;;16.22;47.26
61676;BME280;47574;52.090;5.244;2024-03-17T09:42:04;102047.0;;;16.11;47.42
61676;BME280;47574;52.090;5.244;2024-03-17T09:45:19;102047.0;;;16.2;47.33
61676;BME280;47574;52.090;5.244;2024-03-17T09:46:56;102044.0;;;16.45;46.91
61676;BME280;47574;52.090;5.244;2024-03-17T09:48:34;102042.0;;;16.5;46.8
61676;BME280;47574;52.090;5.244;2024-03-17T09:51:50;102036.0;;;16.32;46.91
61676;BME280;47574;52.090;5.244;2024-03-17T09:53:32;102036.0;;;16.43;46.6
61676;BME280;47574;52.090;5.244;2024-03-17T09:55:15;102034.0;;;16.3;47.09
61676;BME280;47574;52.090;5.244;2024-03-17T09:56:51;102042.0;;;16.48;46.91
61676;BME280;47574;52.090;5.244;2024-03-17T10:00:10;102041.0;;;16.77;46.29
61676;BME280;47574;52.090;5.244;2024-03-17T10:01:47;102038.0;;;16.59;46.52
61676;BME280;47574;52.090;5.244;2024-03-17T10:03:44;102041.0;;;16.72;46.2
61676;BME280;47574;52.090;5.244;2024-03-17T10:05:22;102039.0;;;16.75;46.27
61676;BME280;47574;52.090;5.244;2024-03-17T10:08:40;102038.0;;;16.71;46.23
61676;BME280;47574;52.090;5.244;2024-03-17T10:10:18;102040.0;;;16.86;46.19
61676;BME280;47574;52.090;5.244;2024-03-17T10:11:56;102041.0;;;16.93;46.08
61676;BME280;47574;52.090;5.244;2024-03-17T10:13:32;102039.0;;;16.91;46.35
61676;BME280;47574;52.090;5.244;2024-03-17T10:16:48;102039.0;;;17.25;45.84
61676;BME280;47574;52.090;5.244;2024-03-17T10:18:25;102031.0;;;17.14;45.99
61676;BME280;47574;52.090;5.244;2024-03-17T10:20:11;102033.0;;;16.95;46.19
61676;BME280;47574;52.090;5.244;2024-03-17T10:21:58;102028.0;;;17.16;45.89
61676;BME280;47574;52.090;5.244;2024-03-17T10:25:12;102024.0;;;17.18;45.77
61676;BME280;47574;52.090;5.244;2024-03-17T10:26:50;102025.0;;;17.2;45.75
61676;BME280;47574;52.090;5.244;2024-03-17T10:28:27;102024.0;;;17.16;45.87
61676;BME280;47574;52.090;5.244;2024-03-17T10:30:14;102024.0;;;17.2;45.86
61676;BME280;47574;52.090;5.244;2024-03-17T10:33:32;102023.0;;;17.18;45.95
61676;BME280;47574;52.090;5.244;2024-03-17T10:35:25;102022.0;;;17.18;46.28
61676;BME280;47574;52.090;5.244;2024-03-17T10:37:08;102025.0;;;17.43;45.62
61676;BME280;47574;52.090;5.244;2024-03-17T10:38:51;102016.0;;;17.5;45.51
61676;BME280;47574;52.090;5.244;2024-03-17T10:42:06;102015.0;;;17.52;45.55
61676;BME280;47574;52.090;5.244;2024-03-17T10:43:43;102013.0;;;17.52;45.52
61676;BME280;47574;52.090;5.244;2024-03-17T10:45:20;102011.0;;;17.64;45.31
61676;BME280;47574;52.090;5.244;2024-03-17T10:46:58;102009.0;;;17.71;45.38
61676;BME280;47574;52.090;5.244;2024-03-17T10:50:18;102012.0;;;17.75;45.05
61676;BME280;47574;52.090;5.244;2024-03-17T10:51:58;102007.0;;;17.79;44.86
61676;BME280;47574;52.090;5.244;2024-03-17T10:53:35;102005.0;;;17.95;44.85
61676;BME280;47574;52.090;5.244;2024-03-17T10:55:20;102002.0;;;18.16;44.62
61676;BME280;47574;52.090;5.244;2024-03-17T10:58:53;102000.0;;;18.11;44.52
61676;BME280;47574;52.090;5.244;2024-03-17T11:00:31;102005.0;;;18.31;44.24
61676;BME280;47574;52.090;5.244;2024-03-17T11:02:20;102005.0;;;18.06;44.56
61676;BME280;47574;52.090;5.244;2024-03-17T11:03:57;102002.0;;;18.22;44.45
61676;BME280;47574;52.090;5.244;2024-03-17T11:07:16;101998.0;;;17.95;44.67
61676;BME280;47574;52.090;5.244;2024-03-17T11:08:54;101997.0;;;18.21;44.51